sensor_id;sensor_type;location;lat;lon;timestamp;P1;P2;P0
44933;PMS3003;30667;43.614;1.442;2023-12-20T00:00:52;38.25;37.00;22.75
44933;PMS3003;30667;43.614;1.442;2023-12-20T00:03:17;47.50;38.25;23.00
44933;PMS3003;30667;43.614;1.442;2023-12-20T00:05:42;38.75;33.50;20.00
44933;PMS3003;30667;43.614;1.442;2023-12-20T00:08:08;36.25;32.25;22.00
44933;PMS3003;30667;43.614;1.442;2023-12-20T00:10:33;37.50;33.75;20.00
44933;PMS3003;30667;43.614;1.442;2023-12-20T00:12:59;36.75;32.00;20.00
44933;PMS3003;30667;43.614;1.442;2023-12-20T00:15:24;34.00;30.75;19.25
44933;PMS3003;30667;43.614;1.442;2023-12-20T00:17:49;39.75;36.50;22.75
44933;PMS3003;30667;43.614;1.442;2023-12-20T00:20:15;46.50;34.00;22.00
44933;PMS3003;30667;43.614;1.442;2023-12-20T00:22:40;39.25;34.50;22.50
44933;PMS3003;30667;43.614;1.442;2023-12-20T00:25:06;39.25;35.25;21.75
44933;PMS3003;30667;43.614;1.442;2023-12-20T00:27:32;39.80;35.20;20.00
44933;PMS3003;30667;43.614;1.442;2023-12-20T00:29:57;39.00;32.50;20.25
44933;PMS3003;30667;43.614;1.442;2023-12-20T00:32:23;41.25;33.50;20.75
44933;PMS3003;30667;43.614;1.442;2023-12-20T00:34:48;38.25;35.25;20.75
44933;PMS3003;30667;43.614;1.442;2023-12-20T00:37:13;38.75;30.50;18.50
44933;PMS3003;30667;43.614;1.442;2023-12-20T00:39:39;41.25;34.50;19.00
44933;PMS3003;30667;43.614;1.442;2023-12-20T00:42:04;38.00;33.50;21.00
44933;PMS3003;30667;43.614;1.442;2023-12-20T00:44:30;46.50;36.00;22.00
44933;PMS3003;30667;43.614;1.442;2023-12-20T00:46:55;36.50;31.50;22.00
44933;PMS3003;30667;43.614;1.442;2023-12-20T00:49:20;33.25;32.50;19.75
44933;PMS3003;30667;43.614;1.442;2023-12-20T00:51:46;37.00;34.75;22.00
44933;PMS3003;30667;43.614;1.442;2023-12-20T00:54:12;36.00;34.60;22.60
44933;PMS3003;30667;43.614;1.442;2023-12-20T00:56:38;39.20;36.00;21.40
44933;PMS3003;30667;43.614;1.442;2023-12-20T00:59:04;38.75;36.00;21.50
44933;PMS3003;30667;43.614;1.442;2023-12-20T01:01:29;39.50;36.25;21.75
44933;PMS3003;30667;43.614;1.442;2023-12-20T01:03:54;37.75;33.75;20.00
44933;PMS3003;30667;43.614;1.442;2023-12-20T01:06:20;39.50;32.75;19.25
44933;PMS3003;30667;43.614;1.442;2023-12-20T01:08:45;37.00;34.25;20.50
44933;PMS3003;30667;43.614;1.442;2023-12-20T01:11:11;37.00;33.75;19.25
44933;PMS3003;30667;43.614;1.442;2023-12-20T01:13:36;31.25;31.00;20.00
44933;PMS3003;30667;43.614;1.442;2023-12-20T01:16:02;38.75;34.25;20.00
44933;PMS3003;30667;43.614;1.442;2023-12-20T01:18:27;36.25;33.50;22.00
44933;PMS3003;30667;43.614;1.442;2023-12-20T01:20:53;36.75;33.00;19.75
44933;PMS3003;30667;43.614;1.442;2023-12-20T01:23:18;36.50;32.50;21.00
44933;PMS3003;30667;43.614;1.442;2023-12-20T01:25:44;33.25;31.25;20.00
44933;PMS3003;30667;43.614;1.442;2023-12-20T01:28:09;31.75;29.75;19.75
44933;PMS3003;30667;43.614;1.442;2023-12-20T01:30:35;38.25;33.50;20.75
44933;PMS3003;30667;43.614;1.442;2023-12-20T01:33:00;36.00;33.00;19.00
44933;PMS3003;30667;43.614;1.442;2023-12-20T01:35:26;33.40;30.80;19.00
44933;PMS3003;30667;43.614;1.442;2023-12-20T01:37:51;40.50;33.25;22.00
44933;PMS3003;30667;43.614;1.442;2023-12-20T01:40:17;31.00;29.25;19.25
44933;PMS3003;30667;43.614;1.442;2023-12-20T01:42:42;38.00;32.50;21.25
44933;PMS3003;30667;43.614;1.442;2023-12-20T01:45:08;44.00;36.50;20.00
44933;PMS3003;30667;43.614;1.442;2023-12-20T01:47:33;38.00;33.00;20.25
44933;PMS3003;30667;43.614;1.442;2023-12-20T01:49:59;36.75;33.25;20.00
44933;PMS3003;30667;43.614;1.442;2023-12-20T01:52:25;41.00;37.25;22.25
44933;PMS3003;30667;43.614;1.442;2023-12-20T01:54:51;33.40;31.00;19.60
44933;PMS3003;30667;43.614;1.442;2023-12-20T01:57:17;32.75;27.25;18.00
44933;PMS3003;30667;43.614;1.442;2023-12-20T01:59:42;39.75;34.00;19.25
44933;PMS3003;30667;43.614;1.442;2023-12-20T02:02:09;29.60;28.80;18.00
44933;PMS3003;30667;43.614;1.442;2023-12-20T02:04:36;38.40;30.40;19.20
44933;PMS3003;30667;43.614;1.442;2023-12-20T02:07:02;30.75;29.25;19.25
44933;PMS3003;30667;43.614;1.442;2023-12-20T02:09:28;32.60;30.60;18.80
44933;PMS3003;30667;43.614;1.442;2023-12-20T02:11:54;31.75;28.75;19.25
44933;PMS3003;30667;43.614;1.442;2023-12-20T02:14:19;31.25;28.25;18.75
44933;PMS3003;30667;43.614;1.442;2023-12-20T02:16:45;34.20;29.00;19.00
44933;PMS3003;30667;43.614;1.442;2023-12-20T02:19:13;32.25;27.75;18.25
44933;PMS3003;30667;43.614;1.442;2023-12-20T02:21:40;36.00;33.00;18.20
44933;PMS3003;30667;43.614;1.442;2023-12-20T02:24:05;32.00;29.00;19.75
44933;PMS3003;30667;43.614;1.442;2023-12-20T02:26:32;31.00;29.00;19.00
44933;PMS3003;30667;43.614;1.442;2023-12-20T02:28:58;36.20;29.80;20.00
44933;PMS3003;30667;43.614;1.442;2023-12-20T02:31:24;35.00;31.00;19.50
44933;PMS3003;30667;43.614;1.442;2023-12-20T02:33:49;31.00;29.75;19.25
44933;PMS3003;30667;43.614;1.442;2023-12-20T02:36:15;29.50;27.00;18.75
44933;PMS3003;30667;43.614;1.442;2023-12-20T02:38:40;31.25;28.75;19.50
44933;PMS3003;30667;43.614;1.442;2023-12-20T02:41:05;31.50;29.75;19.00
44933;PMS3003;30667;43.614;1.442;2023-12-20T02:43:31;35.50;30.50;19.00
44933;PMS3003;30667;43.614;1.442;2023-12-20T02:45:56;28.00;27.50;16.25
44933;PMS3003;30667;43.614;1.442;2023-12-20T02:48:22;29.50;26.75;16.50
44933;PMS3003;30667;43.614;1.442;2023-12-20T02:50:48;24.40;23.40;16.00
44933;PMS3003;30667;43.614;1.442;2023-12-20T02:53:14;30.20;28.00;16.00
44933;PMS3003;30667;43.614;1.442;2023-12-20T02:55:39;28.50;27.00;16.75
44933;PMS3003;30667;43.614;1.442;2023-12-20T02:58:05;24.00;24.00;15.00
44933;PMS3003;30667;43.614;1.442;2023-12-20T03:00:30;30.25;25.75;15.50
44933;PMS3003;30667;43.614;1.442;2023-12-20T03:02:55;32.50;26.25;16.00
44933;PMS3003;30667;43.614;1.442;2023-12-20T03:05:21;23.75;23.75;15.00
44933;PMS3003;30667;43.614;1.442;2023-12-20T03:07:46;29.25;23.25;14.25
44933;PMS3003;30667;43.614;1.442;2023-12-20T03:10:11;29.00;25.00;16.00
44933;PMS3003;30667;43.614;1.442;2023-12-20T03:12:37;26.25;24.00;15.00
44933;PMS3003;30667;43.614;1.442;2023-12-20T03:15:02;26.25;23.75;15.00
44933;PMS3003;30667;43.614;1.442;2023-12-20T03:17:28;25.00;23.75;15.75
44933;PMS3003;30667;43.614;1.442;2023-12-20T03:19:53;26.00;24.00;15.00
44933;PMS3003;30667;43.614;1.442;2023-12-20T03:22:18;29.50;27.00;16.50
44933;PMS3003;30667;43.614;1.442;2023-12-20T03:24:44;25.25;23.75;15.00
44933;PMS3003;30667;43.614;1.442;2023-12-20T03:27:09;25.75;24.25;14.50
44933;PMS3003;30667;43.614;1.442;2023-12-20T03:29:34;27.50;26.50;17.00
44933;PMS3003;30667;43.614;1.442;2023-12-20T03:32:00;26.75;25.75;15.25
44933;PMS3003;30667;43.614;1.442;2023-12-20T03:34:26;29.25;24.75;15.00
44933;PMS3003;30667;43.614;1.442;2023-12-20T03:36:51;30.60;27.40;16.40
44933;PMS3003;30667;43.614;1.442;2023-12-20T03:39:17;27.25;24.50;15.50
44933;PMS3003;30667;43.614;1.442;2023-12-20T03:41:42;29.25;26.00;15.25
44933;PMS3003;30667;43.614;1.442;2023-12-20T03:44:07;26.75;25.00;16.00
44933;PMS3003;30667;43.614;1.442;2023-12-20T03:46:33;23.25;22.75;15.00
44933;PMS3003;30667;43.614;1.442;2023-12-20T03:48:58;28.75;26.00;16.00
44933;PMS3003;30667;43.614;1.442;2023-12-20T03:51:24;28.25;24.00;15.00
44933;PMS3003;30667;43.614;1.442;2023-12-20T03:53:49;24.50;23.50;13.50
44933;PMS3003;30667;43.614;1.442;2023-12-20T03:56:14;29.25;25.25;15.75
44933;PMS3003;30667;43.614;1.442;2023-12-20T03:58:40;27.75;26.00;16.00
44933;PMS3003;30667;43.614;1.442;2023-12-20T04:01:09;26.60;25.00;14.60
44933;PMS3003;30667;43.614;1.442;2023-12-20T04:03:38;25.00;23.40;15.00
44933;PMS3003;30667;43.614;1.442;2023-12-20T04:06:05;23.40;22.20;13.20
44933;PMS3003;30667;43.614;1.442;2023-12-20T04:08:30;25.50;22.00;14.50
44933;PMS3003;30667;43.614;1.442;2023-12-20T04:10:56;24.25;23.00;14.50
44933;PMS3003;30667;43.614;1.442;2023-12-20T04:13:21;22.25;22.00;15.00
44933;PMS3003;30667;43.614;1.442;2023-12-20T04:15:46;30.00;25.00;15.00
44933;PMS3003;30667;43.614;1.442;2023-12-20T04:18:13;23.80;21.40;14.00
44933;PMS3003;30667;43.614;1.442;2023-12-20T04:20:38;23.50;22.75;13.75
44933;PMS3003;30667;43.614;1.442;2023-12-20T04:23:03;24.25;23.00;12.50
44933;PMS3003;30667;43.614;1.442;2023-12-20T04:25:29;23.50;21.25;12.50
44933;PMS3003;30667;43.614;1.442;2023-12-20T04:27:54;24.75;22.00;13.75
44933;PMS3003;30667;43.614;1.442;2023-12-20T04:30:19;22.00;21.25;12.00
44933;PMS3003;30667;43.614;1.442;2023-12-20T04:32:45;22.75;21.25;13.00
44933;PMS3003;30667;43.614;1.442;2023-12-20T04:35:10;25.50;22.75;12.25
44933;PMS3003;30667;43.614;1.442;2023-12-20T04:37:35;23.75;20.25;12.75
44933;PMS3003;30667;43.614;1.442;2023-12-20T04:40:01;17.75;17.00;11.00
44933;PMS3003;30667;43.614;1.442;2023-12-20T04:42:26;21.20;18.60;11.40
44933;PMS3003;30667;43.614;1.442;2023-12-20T04:44:52;18.75;18.00;11.25
44933;PMS3003;30667;43.614;1.442;2023-12-20T04:47:17;17.25;16.75;9.25
44933;PMS3003;30667;43.614;1.442;2023-12-20T04:49:43;18.25;17.25;9.50
44933;PMS3003;30667;43.614;1.442;2023-12-20T04:52:08;19.50;18.75;11.50
44933;PMS3003;30667;43.614;1.442;2023-12-20T04:54:34;18.50;17.75;9.00
44933;PMS3003;30667;43.614;1.442;2023-12-20T04:56:59;19.00;17.75;9.25
44933;PMS3003;30667;43.614;1.442;2023-12-20T04:59:24;19.00;15.75;9.00
44933;PMS3003;30667;43.614;1.442;2023-12-20T05:01:50;13.75;13.75;7.50
44933;PMS3003;30667;43.614;1.442;2023-12-20T05:04:15;20.25;15.00;8.00
44933;PMS3003;30667;43.614;1.442;2023-12-20T05:06:40;13.00;13.00;8.00
44933;PMS3003;30667;43.614;1.442;2023-12-20T05:09:06;19.25;16.00;8.00
44933;PMS3003;30667;43.614;1.442;2023-12-20T05:11:31;15.00;13.50;6.25
44933;PMS3003;30667;43.614;1.442;2023-12-20T05:13:56;16.25;14.25;8.00
44933;PMS3003;30667;43.614;1.442;2023-12-20T05:16:22;12.25;12.00;6.00
44933;PMS3003;30667;43.614;1.442;2023-12-20T05:18:48;12.25;12.00;6.00
44933;PMS3003;30667;43.614;1.442;2023-12-20T05:21:15;14.00;12.60;6.00
44933;PMS3003;30667;43.614;1.442;2023-12-20T05:23:40;14.00;14.00;6.00
44933;PMS3003;30667;43.614;1.442;2023-12-20T05:26:06;14.25;11.25;5.00
44933;PMS3003;30667;43.614;1.442;2023-12-20T05:28:31;11.50;10.25;5.00
44933;PMS3003;30667;43.614;1.442;2023-12-20T05:30:57;12.25;9.25;5.00
44933;PMS3003;30667;43.614;1.442;2023-12-20T05:33:22;9.00;8.20;3.20
44933;PMS3003;30667;43.614;1.442;2023-12-20T05:35:48;7.25;7.25;4.00
44933;PMS3003;30667;43.614;1.442;2023-12-20T05:38:13;8.50;8.00;4.00
44933;PMS3003;30667;43.614;1.442;2023-12-20T05:40:38;6.50;6.50;3.00
44933;PMS3003;30667;43.614;1.442;2023-12-20T05:43:04;8.00;7.75;2.00
44933;PMS3003;30667;43.614;1.442;2023-12-20T05:45:29;6.00;5.50;2.00
44933;PMS3003;30667;43.614;1.442;2023-12-20T05:47:55;6.00;6.00;2.00
44933;PMS3003;30667;43.614;1.442;2023-12-20T05:50:20;7.50;7.50;2.00
44933;PMS3003;30667;43.614;1.442;2023-12-20T05:52:46;8.80;6.60;2.40
44933;PMS3003;30667;43.614;1.442;2023-12-20T05:55:11;5.00;4.50;2.00
44933;PMS3003;30667;43.614;1.442;2023-12-20T05:57:37;7.50;6.25;2.00
44933;PMS3003;30667;43.614;1.442;2023-12-20T06:00:02;7.50;7.00;2.50
44933;PMS3003;30667;43.614;1.442;2023-12-20T06:02:28;6.20;5.60;2.00
44933;PMS3003;30667;43.614;1.442;2023-12-20T06:04:54;6.00;6.00;4.00
44933;PMS3003;30667;43.614;1.442;2023-12-20T06:07:19;5.25;5.00;1.50
44933;PMS3003;30667;43.614;1.442;2023-12-20T06:09:45;6.00;6.00;2.00
44933;PMS3003;30667;43.614;1.442;2023-12-20T06:12:11;8.75;6.00;2.00
44933;PMS3003;30667;43.614;1.442;2023-12-20T06:14:36;8.00;6.50;2.00
44933;PMS3003;30667;43.614;1.442;2023-12-20T06:17:02;6.75;6.75;2.00
44933;PMS3003;30667;43.614;1.442;2023-12-20T06:19:27;5.00;5.00;2.00
44933;PMS3003;30667;43.614;1.442;2023-12-20T06:21:53;5.00;5.00;2.00
44933;PMS3003;30667;43.614;1.442;2023-12-20T06:24:19;5.40;5.00;4.00
44933;PMS3003;30667;43.614;1.442;2023-12-20T06:26:45;6.00;6.00;1.75
44933;PMS3003;30667;43.614;1.442;2023-12-20T06:29:10;5.75;5.50;2.00
44933;PMS3003;30667;43.614;1.442;2023-12-20T06:31:35;6.00;5.00;1.00
44933;PMS3003;30667;43.614;1.442;2023-12-20T06:34:01;4.50;4.50;2.00
44933;PMS3003;30667;43.614;1.442;2023-12-20T06:36:26;6.00;6.00;2.00
44933;PMS3003;30667;43.614;1.442;2023-12-20T06:38:52;5.50;4.75;1.00
44933;PMS3003;30667;43.614;1.442;2023-12-20T06:41:23;5.00;5.00;1.00
44933;PMS3003;30667;43.614;1.442;2023-12-20T06:43:49;5.00;5.00;2.00
44933;PMS3003;30667;43.614;1.442;2023-12-20T06:46:15;4.75;4.75;1.00
44933;PMS3003;30667;43.614;1.442;2023-12-20T06:48:40;5.00;5.00;1.75
44933;PMS3003;30667;43.614;1.442;2023-12-20T06:51:06;5.80;5.20;1.00
44933;PMS3003;30667;43.614;1.442;2023-12-20T06:53:31;5.00;5.00;2.00
44933;PMS3003;30667;43.614;1.442;2023-12-20T06:55:57;4.25;4.00;1.00
44933;PMS3003;30667;43.614;1.442;2023-12-20T06:58:22;8.75;8.75;4.75
44933;PMS3003;30667;43.614;1.442;2023-12-20T07:00:48;3.50;3.50;0.75
44933;PMS3003;30667;43.614;1.442;2023-12-20T07:03:14;1.60;1.60;0.00
44933;PMS3003;30667;43.614;1.442;2023-12-20T07:05:39;2.00;2.00;0.00
44933;PMS3003;30667;43.614;1.442;2023-12-20T07:08:05;2.00;2.00;0.40
44933;PMS3003;30667;43.614;1.442;2023-12-20T07:10:31;2.75;2.00;0.00
44933;PMS3003;30667;43.614;1.442;2023-12-20T07:12:56;2.25;2.25;1.00
44933;PMS3003;30667;43.614;1.442;2023-12-20T07:15:22;3.75;2.00;0.00
44933;PMS3003;30667;43.614;1.442;2023-12-20T07:17:48;2.00;2.00;0.00
44933;PMS3003;30667;43.614;1.442;2023-12-20T07:20:13;2.25;2.25;1.00
44933;PMS3003;30667;43.614;1.442;2023-12-20T07:22:38;4.00;4.00;1.00
44933;PMS3003;30667;43.614;1.442;2023-12-20T07:25:04;4.25;4.00;1.75
44933;PMS3003;30667;43.614;1.442;2023-12-20T07:27:30;5.00;4.60;1.00
44933;PMS3003;30667;43.614;1.442;2023-12-20T07:29:58;2.50;2.50;0.75
44933;PMS3003;30667;43.614;1.442;2023-12-20T07:32:27;3.80;2.80;1.00
44933;PMS3003;30667;43.614;1.442;2023-12-20T07:34:57;4.40;3.80;1.00
44933;PMS3003;30667;43.614;1.442;2023-12-20T07:37:22;2.00;2.00;1.00
44933;PMS3003;30667;43.614;1.442;2023-12-20T07:39:48;4.00;4.00;1.00
44933;PMS3003;30667;43.614;1.442;2023-12-20T07:42:13;4.00;4.00;1.00
44933;PMS3003;30667;43.614;1.442;2023-12-20T07:44:39;5.00;5.00;2.00
44933;PMS3003;30667;43.614;1.442;2023-12-20T07:47:04;5.75;5.25;1.75
44933;PMS3003;30667;43.614;1.442;2023-12-20T07:49:30;3.50;3.50;1.00
44933;PMS3003;30667;43.614;1.442;2023-12-20T07:51:56;4.60;3.80;1.00
44933;PMS3003;30667;43.614;1.442;2023-12-20T07:54:22;2.25;2.25;1.00
44933;PMS3003;30667;43.614;1.442;2023-12-20T07:56:48;5.00;5.00;1.75
44933;PMS3003;30667;43.614;1.442;2023-12-20T07:59:13;4.80;4.80;1.00
44933;PMS3003;30667;43.614;1.442;2023-12-20T08:01:39;4.75;4.75;1.00
44933;PMS3003;30667;43.614;1.442;2023-12-20T08:04:04;10.00;6.00;2.00
44933;PMS3003;30667;43.614;1.442;2023-12-20T08:06:30;4.00;4.00;2.00
44933;PMS3003;30667;43.614;1.442;2023-12-20T08:08:55;5.00;4.25;1.00
44933;PMS3003;30667;43.614;1.442;2023-12-20T08:11:20;4.25;4.00;1.00
44933;PMS3003;30667;43.614;1.442;2023-12-20T08:13:46;5.00;4.00;1.00
44933;PMS3003;30667;43.614;1.442;2023-12-20T08:16:11;5.25;4.50;1.00
44933;PMS3003;30667;43.614;1.442;2023-12-20T08:18:38;3.80;3.80;1.00
44933;PMS3003;30667;43.614;1.442;2023-12-20T08:21:04;4.00;4.00;1.00
44933;PMS3003;30667;43.614;1.442;2023-12-20T08:23:32;3.80;3.80;1.00
44933;PMS3003;30667;43.614;1.442;2023-12-20T08:25:58;5.25;5.25;1.50
44933;PMS3003;30667;43.614;1.442;2023-12-20T08:28:23;4.50;4.00;1.00
44933;PMS3003;30667;43.614;1.442;2023-12-20T08:30:48;3.25;3.25;1.00
44933;PMS3003;30667;43.614;1.442;2023-12-20T08:33:18;5.20;3.80;1.00
44933;PMS3003;30667;43.614;1.442;2023-12-20T08:35:43;4.00;4.00;1.00
44933;PMS3003;30667;43.614;1.442;2023-12-20T08:38:09;4.00;4.00;1.00
44933;PMS3003;30667;43.614;1.442;2023-12-20T08:40:35;3.80;3.80;1.00
44933;PMS3003;30667;43.614;1.442;2023-12-20T08:43:01;2.00;2.00;1.00
44933;PMS3003;30667;43.614;1.442;2023-12-20T08:45:26;5.00;5.00;1.00
44933;PMS3003;30667;43.614;1.442;2023-12-20T08:47:51;5.00;4.50;2.00
44933;PMS3003;30667;43.614;1.442;2023-12-20T08:50:17;5.00;5.00;2.00
44933;PMS3003;30667;43.614;1.442;2023-12-20T08:52:43;6.00;5.60;2.00
44933;PMS3003;30667;43.614;1.442;2023-12-20T08:55:08;5.00;5.00;2.00
44933;PMS3003;30667;43.614;1.442;2023-12-20T08:57:35;10.00;10.00;5.40
44933;PMS3003;30667;43.614;1.442;2023-12-20T09:00:00;13.75;13.75;8.25
44933;PMS3003;30667;43.614;1.442;2023-12-20T09:02:26;12.25;12.25;6.00
44933;PMS3003;30667;43.614;1.442;2023-12-20T09:04:51;9.50;8.50;4.00
44933;PMS3003;30667;43.614;1.442;2023-12-20T09:07:23;10.00;9.00;4.00
44933;PMS3003;30667;43.614;1.442;2023-12-20T09:09:52;6.80;5.80;2.00
44933;PMS3003;30667;43.614;1.442;2023-12-20T09:12:18;9.25;6.00;2.00
44933;PMS3003;30667;43.614;1.442;2023-12-20T09:14:45;5.60;5.40;2.00
44933;PMS3003;30667;43.614;1.442;2023-12-20T09:17:11;8.20;7.80;3.80
44933;PMS3003;30667;43.614;1.442;2023-12-20T09:19:37;6.00;5.75;2.00
44933;PMS3003;30667;43.614;1.442;2023-12-20T09:22:03;6.00;6.00;2.00
44933;PMS3003;30667;43.614;1.442;2023-12-20T09:24:29;6.50;5.25;2.00
44933;PMS3003;30667;43.614;1.442;2023-12-20T09:26:55;5.40;5.20;2.80
44933;PMS3003;30667;43.614;1.442;2023-12-20T09:29:20;7.50;5.50;2.00
44933;PMS3003;30667;43.614;1.442;2023-12-20T09:31:46;7.75;7.75;2.00
44933;PMS3003;30667;43.614;1.442;2023-12-20T09:34:11;7.00;6.00;2.00
44933;PMS3003;30667;43.614;1.442;2023-12-20T09:36:37;5.75;5.75;1.75
44933;PMS3003;30667;43.614;1.442;2023-12-20T09:39:05;6.20;6.20;3.60
44933;PMS3003;30667;43.614;1.442;2023-12-20T09:41:31;8.50;6.00;2.00
44933;PMS3003;30667;43.614;1.442;2023-12-20T09:44:03;5.00;5.00;2.00
44933;PMS3003;30667;43.614;1.442;2023-12-20T09:46:29;4.00;4.00;0.00
44933;PMS3003;30667;43.614;1.442;2023-12-20T09:48:59;2.00;2.00;0.60
44933;PMS3003;30667;43.614;1.442;2023-12-20T09:51:26;2.80;2.40;1.00
44933;PMS3003;30667;43.614;1.442;2023-12-20T09:53:54;2.00;2.00;1.00
44933;PMS3003;30667;43.614;1.442;2023-12-20T09:56:21;2.40;2.40;0.80
44933;PMS3003;30667;43.614;1.442;2023-12-20T09:58:47;4.00;4.00;0.80
44933;PMS3003;30667;43.614;1.442;2023-12-20T10:01:13;5.00;4.00;1.00
44933;PMS3003;30667;43.614;1.442;2023-12-20T10:03:39;4.00;3.60;0.40
44933;PMS3003;30667;43.614;1.442;2023-12-20T10:06:06;6.00;5.00;1.00
44933;PMS3003;30667;43.614;1.442;2023-12-20T10:08:32;4.00;4.00;1.00
44933;PMS3003;30667;43.614;1.442;2023-12-20T10:10:57;3.00;2.00;1.00
44933;PMS3003;30667;43.614;1.442;2023-12-20T10:13:27;5.60;3.80;1.00
44933;PMS3003;30667;43.614;1.442;2023-12-20T10:15:54;3.80;3.80;0.60
44933;PMS3003;30667;43.614;1.442;2023-12-20T10:18:20;5.40;4.60;1.60
44933;PMS3003;30667;43.614;1.442;2023-12-20T10:20:46;5.00;4.00;1.00
44933;PMS3003;30667;43.614;1.442;2023-12-20T10:23:12;2.80;2.80;1.00
44933;PMS3003;30667;43.614;1.442;2023-12-20T10:25:39;4.40;3.80;2.00
44933;PMS3003;30667;43.614;1.442;2023-12-20T10:28:09;4.40;3.20;1.00
44933;PMS3003;30667;43.614;1.442;2023-12-20T10:30:34;5.00;4.40;1.00
44933;PMS3003;30667;43.614;1.442;2023-12-20T10:33:00;5.00;4.80;1.00
44933;PMS3003;30667;43.614;1.442;2023-12-20T10:35:26;4.00;2.00;1.00
44933;PMS3003;30667;43.614;1.442;2023-12-20T10:37:52;4.25;4.00;1.00
44933;PMS3003;30667;43.614;1.442;2023-12-20T10:40:21;7.80;5.40;2.00
44933;PMS3003;30667;43.614;1.442;2023-12-20T10:42:47;3.75;2.00;0.25
44933;PMS3003;30667;43.614;1.442;2023-12-20T10:45:12;4.00;4.00;1.75
44933;PMS3003;30667;43.614;1.442;2023-12-20T10:47:38;4.00;4.00;1.00
44933;PMS3003;30667;43.614;1.442;2023-12-20T10:50:05;2.00;2.00;1.00
44933;PMS3003;30667;43.614;1.442;2023-12-20T10:52:32;5.00;5.00;1.00
44933;PMS3003;30667;43.614;1.442;2023-12-20T10:55:00;5.00;3.80;1.00
44933;PMS3003;30667;43.614;1.442;2023-12-20T10:57:26;5.00;4.00;0.50
44933;PMS3003;30667;43.614;1.442;2023-12-20T10:59:53;3.80;2.00;0.00
44933;PMS3003;30667;43.614;1.442;2023-12-20T11:02:19;1.00;1.00;0.00
44933;PMS3003;30667;43.614;1.442;2023-12-20T11:04:51;4.40;3.20;0.00
44933;PMS3003;30667;43.614;1.442;2023-12-20T11:07:32;4.40;3.80;0.00
44933;PMS3003;30667;43.614;1.442;2023-12-20T11:15:24;3.80;3.80;1.00
44933;PMS3003;30667;43.614;1.442;2023-12-20T11:17:55;2.00;2.00;0.80
44933;PMS3003;30667;43.614;1.442;2023-12-20T11:20:24;2.40;2.00;0.00
44933;PMS3003;30667;43.614;1.442;2023-12-20T11:23:02;4.80;3.60;0.80
44933;PMS3003;30667;43.614;1.442;2023-12-20T11:25:27;2.00;2.00;0.20
44933;PMS3003;30667;43.614;1.442;2023-12-20T11:28:11;4.50;3.25;1.00
44933;PMS3003;30667;43.614;1.442;2023-12-20T11:30:40;3.80;3.80;1.00
44933;PMS3003;30667;43.614;1.442;2023-12-20T11:33:08;2.00;2.00;0.00
44933;PMS3003;30667;43.614;1.442;2023-12-20T11:35:34;3.80;3.80;0.40
44933;PMS3003;30667;43.614;1.442;2023-12-20T11:38:01;4.60;4.00;0.40
44933;PMS3003;30667;43.614;1.442;2023-12-20T11:40:27;4.50;4.00;1.00
44933;PMS3003;30667;43.614;1.442;2023-12-20T11:42:52;5.00;4.00;0.00
44933;PMS3003;30667;43.614;1.442;2023-12-20T11:45:19;3.80;2.00;0.60
44933;PMS3003;30667;43.614;1.442;2023-12-20T11:47:50;5.00;5.00;2.00
44933;PMS3003;30667;43.614;1.442;2023-12-20T11:50:24;3.00;3.00;0.80
44933;PMS3003;30667;43.614;1.442;2023-12-20T11:56:21;4.00;2.00;0.00
44933;PMS3003;30667;43.614;1.442;2023-12-20T11:58:46;2.00;2.00;0.00
44933;PMS3003;30667;43.614;1.442;2023-12-20T12:01:25;4.60;2.40;0.40
44933;PMS3003;30667;43.614;1.442;2023-12-20T12:04:02;4.20;2.40;0.60
44933;PMS3003;30667;43.614;1.442;2023-12-20T12:06:30;5.00;2.00;0.00
44933;PMS3003;30667;43.614;1.442;2023-12-20T12:08:56;2.00;2.00;0.00
44933;PMS3003;30667;43.614;1.442;2023-12-20T12:11:22;2.00;1.00;0.00
44933;PMS3003;30667;43.614;1.442;2023-12-20T12:13:48;1.00;1.00;0.00
44933;PMS3003;30667;43.614;1.442;2023-12-20T12:16:17;2.00;2.00;0.00
44933;PMS3003;30667;43.614;1.442;2023-12-20T12:18:44;1.00;1.00;0.00
44933;PMS3003;30667;43.614;1.442;2023-12-20T12:21:09;2.00;1.20;0.00
44933;PMS3003;30667;43.614;1.442;2023-12-20T12:23:35;1.75;1.75;0.00
44933;PMS3003;30667;43.614;1.442;2023-12-20T12:26:03;2.00;2.00;0.00
44933;PMS3003;30667;43.614;1.442;2023-12-20T12:28:29;2.80;2.00;0.00
44933;PMS3003;30667;43.614;1.442;2023-12-20T12:30:59;5.00;3.60;0.40
44933;PMS3003;30667;43.614;1.442;2023-12-20T12:33:25;5.40;4.20;1.00
44933;PMS3003;30667;43.614;1.442;2023-12-20T12:35:51;2.40;2.00;0.00
44933;PMS3003;30667;43.614;1.442;2023-12-20T12:38:19;2.75;2.00;0.00
44933;PMS3003;30667;43.614;1.442;2023-12-20T12:40:45;3.60;2.00;0.00
44933;PMS3003;30667;43.614;1.442;2023-12-20T12:43:11;2.00;2.00;0.00
44933;PMS3003;30667;43.614;1.442;2023-12-20T12:45:37;2.20;2.20;0.80
44933;PMS3003;30667;43.614;1.442;2023-12-20T12:48:03;2.50;1.25;0.00
44933;PMS3003;30667;43.614;1.442;2023-12-20T12:50:29;4.25;2.50;0.00
44933;PMS3003;30667;43.614;1.442;2023-12-20T12:52:55;6.00;3.80;1.00
44933;PMS3003;30667;43.614;1.442;2023-12-20T12:55:21;2.50;2.00;0.50
44933;PMS3003;30667;43.614;1.442;2023-12-20T12:57:46;3.50;2.00;0.25
44933;PMS3003;30667;43.614;1.442;2023-12-20T13:00:14;1.60;1.60;0.00
44933;PMS3003;30667;43.614;1.442;2023-12-20T13:02:40;1.00;1.00;0.00
44933;PMS3003;30667;43.614;1.442;2023-12-20T13:05:08;2.40;2.40;0.00
44933;PMS3003;30667;43.614;1.442;2023-12-20T13:07:34;2.00;2.00;0.00
44933;PMS3003;30667;43.614;1.442;2023-12-20T13:10:00;1.00;1.00;0.00
44933;PMS3003;30667;43.614;1.442;2023-12-20T13:12:26;2.00;2.00;0.00
44933;PMS3003;30667;43.614;1.442;2023-12-20T13:14:51;4.00;2.00;0.00
44933;PMS3003;30667;43.614;1.442;2023-12-20T13:17:16;1.25;1.25;0.00
44933;PMS3003;30667;43.614;1.442;2023-12-20T13:19:42;5.00;3.75;0.00
44933;PMS3003;30667;43.614;1.442;2023-12-20T13:22:08;1.75;1.75;0.00
44933;PMS3003;30667;43.614;1.442;2023-12-20T13:24:33;1.25;1.25;0.00
44933;PMS3003;30667;43.614;1.442;2023-12-20T13:26:59;2.00;1.80;0.00
44933;PMS3003;30667;43.614;1.442;2023-12-20T13:29:25;2.00;2.00;0.00
44933;PMS3003;30667;43.614;1.442;2023-12-20T13:31:53;3.60;2.00;0.00
44933;PMS3003;30667;43.614;1.442;2023-12-20T13:34:19;2.00;1.75;0.00
44933;PMS3003;30667;43.614;1.442;2023-12-20T13:36:44;1.25;1.25;0.00
44933;PMS3003;30667;43.614;1.442;2023-12-20T13:39:15;1.40;1.40;0.00
44933;PMS3003;30667;43.614;1.442;2023-12-20T13:41:41;2.00;1.60;0.00
44933;PMS3003;30667;43.614;1.442;2023-12-20T13:44:07;2.50;2.00;0.00
44933;PMS3003;30667;43.614;1.442;2023-12-20T13:46:32;5.50;3.50;0.00
44933;PMS3003;30667;43.614;1.442;2023-12-20T13:48:57;1.00;1.00;0.00
44933;PMS3003;30667;43.614;1.442;2023-12-20T13:51:23;2.00;2.00;0.00
44933;PMS3003;30667;43.614;1.442;2023-12-20T13:53:48;1.00;1.00;0.00
44933;PMS3003;30667;43.614;1.442;2023-12-20T13:56:16;1.25;1.25;0.00
44933;PMS3003;30667;43.614;1.442;2023-12-20T13:58:42;4.60;2.40;0.00
44933;PMS3003;30667;43.614;1.442;2023-12-20T14:01:08;7.50;4.00;0.25
44933;PMS3003;30667;43.614;1.442;2023-12-20T14:03:35;3.20;2.00;0.00
44933;PMS3003;30667;43.614;1.442;2023-12-20T14:06:00;3.25;3.00;0.00
44933;PMS3003;30667;43.614;1.442;2023-12-20T14:08:26;2.00;1.75;0.00
44933;PMS3003;30667;43.614;1.442;2023-12-20T14:10:52;5.00;4.00;1.00